Time;durP1;ratioP1;P1;durP2;ratioP2;P2;SDS_P1;SDS_P2;PMS_P1;PMS_P2;Temp;Humidity;BMP_temperature;BMP_pressure;BME280_temperature;BME280_humidity;BME280_pressure;Samples;Min_cycle;Max_cycle;Signal;HPM_P1;HPM_P2
2023/01/24 00:02:21;;;;;;;17.70;12.10;;;1.20;99.90;;;;;;5045675;28;20182;-66
2023/01/24 00:04:47;;;;;;;14.93;10.33;;;1.20;99.90;;;;;;5045664;28;20435;-67
2023/01/24 00:07:13;;;;;;;17.33;11.67;;;1.10;99.90;;;;;;5047043;28;20206;-66
2023/01/24 00:09:39;;;;;;;21.47;11.17;;;1.10;99.90;;;;;;5046121;28;20211;-69
2023/01/24 00:12:04;;;;;;;16.40;9.57;;;1.10;99.90;;;;;;5041730;28;20413;-67
2023/01/24 00:14:30;;;;;;;14.97;10.57;;;1.10;99.90;;;;;;5045043;28;20549;-62
2023/01/24 00:16:56;;;;;;;18.83;10.67;;;1.10;99.90;;;;;;5046062;28;20174;-66
2023/01/24 00:19:21;;;;;;;22.87;12.03;;;1.10;99.90;;;;;;5046082;28;20700;-67
2023/01/24 00:21:47;;;;;;;27.07;11.30;;;1.10;99.90;;;;;;5045822;28;20558;-66
2023/01/24 00:24:12;;;;;;;17.63;10.40;;;1.00;99.90;;;;;;5024087;28;20173;-65
2023/01/24 00:26:38;;;;;;;20.90;10.33;;;1.00;99.90;;;;;;5037309;28;20206;-61
2023/01/24 00:29:04;;;;;;;18.77;9.60;;;1.00;99.90;;;;;;5042900;28;20204;-66
2023/01/24 00:31:30;;;;;;;18.27;10.97;;;1.00;99.90;;;;;;5045673;28;20186;-65
2023/01/24 00:33:56;;;;;;;15.47;9.10;;;1.00;99.90;;;;;;5043811;28;20495;-66
2023/01/24 00:36:21;;;;;;;15.23;9.17;;;1.00;99.90;;;;;;5045653;28;20769;-67
2023/01/24 00:38:47;;;;;;;14.33;9.17;;;1.00;99.90;;;;;;5039164;28;20562;-65
2023/01/24 00:41:13;;;;;;;18.00;10.90;;;1.00;99.90;;;;;;5042863;28;20179;-66
2023/01/24 00:43:39;;;;;;;15.40;10.90;;;1.00;99.90;;;;;;5044616;28;20329;-65
2023/01/24 00:46:06;;;;;;;20.40;10.80;;;1.00;99.90;;;;;;5037284;28;20256;-66
2023/01/24 00:48:33;;;;;;;11.80;8.70;;;1.00;99.90;;;;;;5037250;28;20669;-67
2023/01/24 00:50:59;;;;;;;14.27;9.57;;;1.00;99.90;;;;;;5036252;28;20420;-65
2023/01/24 00:53:26;;;;;;;17.17;10.40;;;0.90;99.90;;;;;;5040612;28;20785;-66
2023/01/24 00:55:52;;;;;;;20.83;10.10;;;0.90;99.90;;;;;;5046423;28;20625;-66
2023/01/24 00:58:17;;;;;;;14.63;9.30;;;0.90;99.90;;;;;;5036490;28;20975;-66
2023/01/24 01:00:43;;;;;;;15.80;9.70;;;0.90;99.90;;;;;;5044523;28;20417;-66
2023/01/24 01:03:19;;;;;;;14.73;9.97;;;0.90;99.90;;;;;;5045088;28;20190;-66
2023/01/24 01:05:45;;;;;;;14.00;8.47;;;0.90;99.90;;;;;;5039157;28;20506;-66
2023/01/24 01:08:11;;;;;;;12.07;8.63;;;0.90;99.90;;;;;;5046230;28;20425;-66
2023/01/24 01:10:38;;;;;;;12.23;8.07;;;0.90;99.90;;;;;;5045238;28;20299;-66
2023/01/24 01:13:04;;;;;;;15.00;9.27;;;0.80;99.90;;;;;;5046404;28;20470;-66
2023/01/24 01:15:30;;;;;;;18.10;9.07;;;0.80;99.90;;;;;;5042454;28;20461;-66
2023/01/24 01:17:57;;;;;;;11.23;7.33;;;0.80;99.90;;;;;;5048261;28;20940;-66
2023/01/24 01:20:23;;;;;;;12.17;8.97;;;0.80;99.90;;;;;;5043084;28;20184;-70
2023/01/24 01:22:49;;;;;;;10.87;8.57;;;0.80;99.90;;;;;;5045210;28;20446;-65
2023/01/24 01:25:14;;;;;;;14.03;8.97;;;0.70;99.90;;;;;;5033584;28;20562;-67
2023/01/24 01:27:40;;;;;;;14.17;8.60;;;0.70;99.90;;;;;;5102567;22;20214;-69
2023/01/24 01:30:06;;;;;;;14.30;7.83;;;0.70;99.90;;;;;;5082772;28;20749;-69
2023/01/24 01:32:32;;;;;;;11.20;7.90;;;0.70;99.90;;;;;;5077826;28;20178;-69
2023/01/24 01:34:58;;;;;;;10.30;8.33;;;0.70;99.90;;;;;;5082894;28;20507;-68
2023/01/24 01:37:24;;;;;;;11.43;8.03;;;0.70;99.90;;;;;;5073061;28;20186;-69
2023/01/24 01:39:49;;;;;;;9.70;7.47;;;0.70;99.90;;;;;;5041960;28;20195;-69
2023/01/24 01:42:17;;;;;;;9.80;7.07;;;0.70;99.90;;;;;;5063149;28;20882;-69
2023/01/24 01:44:49;;;;;;;13.67;8.50;;;0.80;99.90;;;;;;5066754;28;20257;-70
2023/01/24 01:47:35;;;;;;;10.27;7.20;;;0.70;99.90;;;;;;5058103;28;21219;-69
2023/01/24 01:50:09;;;;;;;12.33;7.40;;;0.70;99.90;;;;;;5050680;28;21167;-69
2023/01/24 01:52:40;;;;;;;9.53;7.07;;;0.70;99.90;;;;;;5067387;28;20503;-68
2023/01/24 01:55:12;;;;;;;10.53;6.93;;;0.70;99.90;;;;;;5066495;28;20515;-68
2023/01/24 01:57:37;;;;;;;8.43;6.53;;;0.70;99.90;;;;;;5056265;28;20436;-69
2023/01/24 02:00:09;;;;;;;9.07;6.37;;;0.70;99.90;;;;;;5068575;28;20752;-70
2023/01/24 02:02:36;;;;;;;10.07;6.53;;;0.60;99.90;;;;;;5056527;28;20281;-69
2023/01/24 02:05:04;;;;;;;13.50;7.27;;;0.60;99.90;;;;;;5061406;28;20468;-69
2023/01/24 02:07:55;;;;;;;7.50;6.53;;;0.60;99.90;;;;;;5052383;28;20904;-69
2023/01/24 02:10:23;;;;;;;7.70;6.67;;;0.50;99.90;;;;;;5047762;28;20400;-69
2023/01/24 02:12:52;;;;;;;12.07;6.83;;;0.60;99.90;;;;;;5057842;28;20409;-69
2023/01/24 02:18:07;;;;;;;9.17;6.77;;;0.60;99.90;;;;;;5058125;28;20488;-69
2023/01/24 02:20:40;;;;;;;11.73;6.40;;;0.60;99.90;;;;;;5052914;28;20515;-69
2023/01/24 02:23:11;;;;;;;8.67;6.20;;;0.70;99.90;;;;;;5064224;28;20417;-69
2023/01/24 02:25:46;;;;;;;11.07;6.13;;;0.60;99.90;;;;;;5062519;28;20450;-69
2023/01/24 02:28:11;;;;;;;9.30;7.00;;;0.60;99.90;;;;;;5066678;28;20458;-69
2023/01/24 02:30:38;;;;;;;9.30;6.30;;;0.70;99.90;;;;;;5058596;28;20408;-68
2023/01/24 02:33:18;;;;;;;7.60;6.77;;;0.70;99.90;;;;;;5058327;28;20174;-70
2023/01/24 02:35:45;;;;;;;6.67;5.50;;;0.70;99.90;;;;;;5064849;28;20416;-70
2023/01/24 02:38:23;;;;;;;8.77;6.50;;;0.60;99.90;;;;;;5058932;28;20464;-69
2023/01/24 02:40:55;;;;;;;7.27;5.50;;;0.60;99.90;;;;;;5065885;28;20462;-69
2023/01/24 02:43:25;;;;;;;11.27;6.53;;;0.60;99.90;;;;;;5063955;28;20466;-70
2023/01/24 02:45:51;;;;;;;8.37;5.27;;;0.60;99.90;;;;;;5066827;28;20448;-70
2023/01/24 02:48:16;;;;;;;10.97;6.30;;;0.50;99.90;;;;;;5059913;28;20844;-70
2023/01/24 02:53:29;;;;;;;7.30;4.93;;;0.50;99.90;;;;;;5060245;28;20270;-70
2023/01/24 02:58:40;;;;;;;6.60;5.40;;;0.50;99.90;;;;;;5059400;28;20844;-69
2023/01/24 03:01:06;;;;;;;8.20;6.73;;;0.50;99.90;;;;;;5061451;28;20559;-68
2023/01/24 03:03:31;;;;;;;9.97;6.67;;;0.60;99.90;;;;;;5062815;28;20183;-69
2023/01/24 03:05:57;;;;;;;6.00;4.93;;;0.50;99.90;;;;;;5062290;28;20273;-69
2023/01/24 03:08:29;;;;;;;7.10;5.50;;;0.60;99.90;;;;;;5065219;28;20166;-69
2023/01/24 03:10:55;;;;;;;6.33;5.67;;;0.50;99.90;;;;;;5060714;28;20209;-69
2023/01/24 03:35:18;;;;;;;8.00;5.13;;;0.50;99.90;;;;;;5066459;28;20431;-68
2023/01/24 03:40:27;;;;;;;6.27;4.70;;;0.50;99.90;;;;;;5067345;28;20197;-69
2023/01/24 03:42:53;;;;;;;8.20;5.47;;;0.50;99.90;;;;;;5069786;28;20425;-69
2023/01/24 03:45:27;;;;;;;8.03;6.30;;;0.50;99.90;;;;;;5065563;28;20291;-69
2023/01/24 03:47:56;;;;;;;6.63;5.67;;;0.50;99.90;;;;;;5063167;28;20220;-70
2023/01/24 03:53:09;;;;;;;7.10;5.00;;;0.40;99.90;;;;;;5065433;28;20408;-70
2023/01/24 03:55:35;;;;;;;8.13;7.33;;;0.40;99.90;;;;;;5069240;28;20932;-70
2023/01/24 03:58:01;;;;;;;8.03;6.07;;;0.50;99.90;;;;;;5066455;28;20504;-69
2023/01/24 04:00:27;;;;;;;8.43;5.80;;;0.50;99.90;;;;;;5062917;28;20447;-68
2023/01/24 04:02:53;;;;;;;9.20;6.63;;;0.50;99.90;;;;;;5064580;28;20465;-68
2023/01/24 04:05:20;;;;;;;9.03;6.57;;;0.50;99.90;;;;;;5065586;28;20416;-69
2023/01/24 04:07:48;;;;;;;7.37;5.93;;;0.50;99.90;;;;;;5067720;28;20428;-69
2023/01/24 04:10:14;;;;;;;12.37;6.70;;;0.50;99.90;;;;;;5065477;28;20411;-69
2023/01/24 04:12:41;;;;;;;10.47;6.37;;;0.50;99.90;;;;;;5069115;28;20409;-69
2023/01/24 04:15:08;;;;;;;6.50;5.90;;;0.50;99.90;;;;;;5061302;28;20455;-69
2023/01/24 04:17:33;;;;;;;9.40;6.40;;;0.40;99.90;;;;;;5047594;28;20457;-69
2023/01/24 04:19:59;;;;;;;7.90;7.10;;;0.40;99.90;;;;;;5058929;28;20413;-69
2023/01/24 04:22:24;;;;;;;9.97;8.07;;;0.40;99.90;;;;;;5063562;28;20178;-69
2023/01/24 04:24:50;;;;;;;8.83;5.90;;;0.40;99.90;;;;;;5070998;28;20200;-69
2023/01/24 04:27:16;;;;;;;7.30;6.00;;;0.40;99.90;;;;;;5066299;28;20214;-69
2023/01/24 04:29:41;;;;;;;9.03;6.23;;;0.40;99.90;;;;;;5062245;28;20247;-69
2023/01/24 04:32:07;;;;;;;7.20;6.13;;;0.40;99.90;;;;;;5068915;28;20247;-69
2023/01/24 04:34:33;;;;;;;9.47;7.00;;;0.40;99.90;;;;;;5059119;28;20205;-69
2023/01/24 04:36:58;;;;;;;8.77;6.10;;;0.40;99.90;;;;;;5068706;28;20798;-69
2023/01/24 04:39:24;;;;;;;10.07;6.30;;;0.40;99.90;;;;;;5062353;28;20182;-69
2023/01/24 04:41:50;;;;;;;8.93;6.80;;;0.40;99.90;;;;;;5066082;28;20179;-70
2023/01/24 04:44:15;;;;;;;9.60;6.53;;;0.40;99.90;;;;;;5067264;28;20244;-69
2023/01/24 04:46:41;;;;;;;11.17;7.30;;;0.40;99.90;;;;;;5066850;28;20237;-69
2023/01/24 04:49:06;;;;;;;8.57;6.13;;;0.40;99.90;;;;;;5063242;28;20546;-69
2023/01/24 04:51:32;;;;;;;9.47;6.03;;;0.40;99.90;;;;;;5060240;28;20584;-69
2023/01/24 04:53:58;;;;;;;10.30;7.97;;;0.40;99.90;;;;;;5064849;28;20178;-69
2023/01/24 04:56:23;;;;;;;12.73;6.80;;;0.40;99.90;;;;;;5068126;28;20198;-69
2023/01/24 04:58:49;;;;;;;7.83;5.97;;;0.40;99.90;;;;;;5063976;28;20598;-69
2023/01/24 05:01:14;;;;;;;9.40;6.67;;;0.40;99.90;;;;;;5063053;28;20233;-69
2023/01/24 05:03:40;;;;;;;10.37;7.30;;;0.40;99.90;;;;;;5066501;28;20255;-69
2023/01/24 05:06:06;;;;;;;9.40;6.30;;;0.40;99.90;;;;;;5062507;28;20274;-69
2023/01/24 05:08:31;;;;;;;11.23;7.60;;;0.40;99.90;;;;;;5066339;28;20549;-69
2023/01/24 05:11:01;;;;;;;8.37;6.40;;;0.40;99.90;;;;;;5059643;28;20522;-69
2023/01/24 05:13:27;;;;;;;12.80;7.60;;;0.40;99.90;;;;;;5068103;28;20162;-69
2023/01/24 05:15:53;;;;;;;7.40;5.80;;;0.30;99.90;;;;;;5055078;28;20791;-69
2023/01/24 05:18:19;;;;;;;12.10;8.87;;;0.30;99.90;;;;;;5063624;28;20182;-69
2023/01/24 05:20:45;;;;;;;7.87;6.33;;;0.30;99.90;;;;;;5052621;28;20195;-69
2023/01/24 05:23:10;;;;;;;9.33;7.07;;;0.30;99.90;;;;;;5064400;28;20424;-69
2023/01/24 05:25:36;;;;;;;9.40;6.63;;;0.30;99.90;;;;;;5069296;28;20248;-68
2023/01/24 05:28:02;;;;;;;10.00;7.10;;;0.30;99.90;;;;;;5056061;28;20234;-68
2023/01/24 05:30:27;;;;;;;7.70;5.83;;;0.30;99.90;;;;;;5047232;28;20199;-67
2023/01/24 05:32:57;;;;;;;9.90;7.50;;;0.30;99.90;;;;;;5065132;28;20429;-68
2023/01/24 05:35:22;;;;;;;8.37;7.07;;;0.30;99.90;;;;;;5053069;28;20179;-69
2023/01/24 05:37:48;;;;;;;13.27;9.73;;;0.30;99.90;;;;;;5065051;28;20430;-68
2023/01/24 05:40:14;;;;;;;9.60;6.27;;;0.30;99.90;;;;;;5063907;28;20186;-69
2023/01/24 05:42:42;;;;;;;8.63;7.73;;;0.30;99.90;;;;;;5055995;28;20187;-68
2023/01/24 05:45:09;;;;;;;9.37;6.90;;;0.30;99.90;;;;;;5056491;28;20419;-68
2023/01/24 05:47:34;;;;;;;7.83;6.40;;;0.40;99.90;;;;;;5059796;28;20447;-68
2023/01/24 05:50:00;;;;;;;8.77;7.10;;;0.30;99.90;;;;;;5065525;28;20401;-68
2023/01/24 05:52:25;;;;;;;8.30;5.97;;;0.30;99.90;;;;;;5055689;28;20170;-68
2023/01/24 05:54:51;;;;;;;8.90;6.70;;;0.30;99.90;;;;;;5065463;28;20183;-68
2023/01/24 05:57:18;;;;;;;8.77;6.47;;;0.30;99.90;;;;;;5063634;28;20634;-68
2023/01/24 05:59:43;;;;;;;7.23;5.90;;;0.40;99.90;;;;;;5056889;28;20545;-68
2023/01/24 06:02:10;;;;;;;7.73;6.20;;;0.40;99.90;;;;;;5064847;28;20543;-68
2023/01/24 06:04:35;;;;;;;9.27;6.47;;;0.40;99.90;;;;;;5058199;28;20481;-68
2023/01/24 06:07:01;;;;;;;13.70;7.57;;;0.40;99.90;;;;;;5065200;28;20456;-68
2023/01/24 06:09:27;;;;;;;10.77;6.13;;;0.40;99.90;;;;;;5062478;28;20177;-68
2023/01/24 06:11:53;;;;;;;8.73;6.73;;;0.40;99.90;;;;;;5065295;28;20288;-70
2023/01/24 06:14:21;;;;;;;12.90;6.83;;;0.40;99.90;;;;;;5063635;28;20488;-68
2023/01/24 06:16:47;;;;;;;11.90;7.83;;;0.30;99.90;;;;;;5061149;28;20915;-68
2023/01/24 06:19:14;;;;;;;10.00;6.63;;;0.30;99.90;;;;;;5047733;28;20420;-68
2023/01/24 06:21:46;;;;;;;10.73;6.80;;;0.30;99.90;;;;;;5065532;28;20492;-68
2023/01/24 06:24:26;;;;;;;13.50;5.83;;;0.30;99.90;;;;;;5055999;28;20408;-67
2023/01/24 06:26:53;;;;;;;7.87;5.77;;;0.40;99.90;;;;;;5066261;28;20567;-68
2023/01/24 06:29:20;;;;;;;10.50;6.50;;;0.40;99.90;;;;;;5052275;28;20464;-67
2023/01/24 06:31:55;;;;;;;10.20;5.80;;;0.40;99.90;;;;;;5065268;28;20420;-68
2023/01/24 06:34:27;;;;;;;10.80;7.07;;;0.30;99.90;;;;;;5038114;28;20412;-67
2023/01/24 06:37:04;;;;;;;12.20;7.30;;;0.30;99.90;;;;;;5052059;28;20466;-67
2023/01/24 06:39:30;;;;;;;12.23;6.90;;;0.30;99.90;;;;;;5059168;28;20946;-67
2023/01/24 06:41:56;;;;;;;16.20;8.13;;;0.30;99.90;;;;;;5067759;28;20408;-67
2023/01/24 06:44:22;;;;;;;8.67;6.40;;;0.30;99.90;;;;;;5058382;28;20441;-68
2023/01/24 06:46:48;;;;;;;12.83;6.40;;;0.30;99.90;;;;;;5057957;28;20468;-68
2023/01/24 06:49:14;;;;;;;11.20;8.20;;;0.40;99.90;;;;;;5064461;28;20404;-68
2023/01/24 06:51:39;;;;;;;12.43;8.07;;;0.40;99.90;;;;;;5059203;28;20184;-68
2023/01/24 06:54:05;;;;;;;13.43;7.43;;;0.40;99.90;;;;;;5061538;28;20511;-68
2023/01/24 06:56:31;;;;;;;14.63;7.43;;;0.40;99.90;;;;;;5047927;28;20203;-68
2023/01/24 06:58:57;;;;;;;11.20;7.80;;;0.30;99.90;;;;;;5068139;28;20197;-67
2023/01/24 07:01:22;;;;;;;15.80;8.43;;;0.30;99.90;;;;;;5059102;28;20417;-67
2023/01/24 07:03:48;;;;;;;21.27;10.00;;;0.40;99.90;;;;;;5059628;28;20265;-67
2023/01/24 07:06:15;;;;;;;16.20;8.90;;;0.30;99.90;;;;;;5062162;28;20210;-69
2023/01/24 07:08:41;;;;;;;17.17;7.73;;;0.30;99.90;;;;;;5057308;28;20199;-67
2023/01/24 07:11:07;;;;;;;21.40;8.43;;;0.30;99.90;;;;;;5067752;28;20759;-68
2023/01/24 07:13:33;;;;;;;17.03;9.10;;;0.40;99.90;;;;;;5059263;28;20553;-68
2023/01/24 07:16:02;;;;;;;15.20;10.03;;;0.30;99.90;;;;;;5068452;28;20185;-68
2023/01/24 07:18:28;;;;;;;12.27;8.80;;;0.30;99.90;;;;;;5061222;28;20185;-68
2023/01/24 07:20:53;;;;;;;16.80;7.60;;;0.30;99.90;;;;;;5064357;28;20507;-68
2023/01/24 07:23:21;;;;;;;16.73;9.50;;;0.30;99.90;;;;;;5064217;28;20875;-68
2023/01/24 07:25:48;;;;;;;21.90;9.33;;;0.40;99.90;;;;;;5049946;28;20633;-68
2023/01/24 07:28:13;;;;;;;17.20;9.97;;;0.40;99.90;;;;;;5064992;28;20543;-68
2023/01/24 07:30:39;;;;;;;22.47;9.67;;;0.50;99.90;;;;;;5061416;28;20515;-75
2023/01/24 07:33:04;;;;;;;23.63;9.87;;;0.40;99.90;;;;;;5065677;28;20170;-74
2023/01/24 07:35:30;;;;;;;20.30;9.80;;;0.40;99.90;;;;;;5058531;28;20209;-68
2023/01/24 07:37:56;;;;;;;14.03;9.60;;;0.30;99.90;;;;;;5055538;28;20221;-68
2023/01/24 07:40:21;;;;;;;15.60;9.43;;;0.40;99.90;;;;;;5049879;28;20334;-68
2023/01/24 07:42:47;;;;;;;16.07;9.77;;;0.40;99.90;;;;;;5057502;28;20228;-69
2023/01/24 07:45:12;;;;;;;16.17;10.70;;;0.40;99.90;;;;;;5057608;28;20549;-70
2023/01/24 07:47:38;;;;;;;19.23;9.83;;;0.50;99.90;;;;;;5052893;28;20202;-69
2023/01/24 07:50:04;;;;;;;18.50;9.10;;;0.50;99.90;;;;;;5065385;28;20226;-69
2023/01/24 07:52:30;;;;;;;23.17;9.67;;;0.50;99.90;;;;;;5061494;28;20170;-68
2023/01/24 07:54:55;;;;;;;25.83;10.97;;;0.50;99.90;;;;;;5057969;28;20770;-67
2023/01/24 07:57:21;;;;;;;19.60;9.57;;;0.50;99.90;;;;;;5075905;22;20215;-66
2023/01/24 07:59:46;;;;;;;17.10;10.40;;;0.50;99.90;;;;;;5037186;28;20191;-67
2023/01/24 08:02:12;;;;;;;24.63;9.37;;;0.50;99.90;;;;;;5043036;28;20198;-68
2023/01/24 08:04:38;;;;;;;17.53;9.97;;;0.50;99.90;;;;;;5039652;28;20189;-67
2023/01/24 08:07:16;;;;;;;21.07;11.97;;;0.50;99.90;;;;;;5040819;28;20234;-68
2023/01/24 08:09:41;;;;;;;23.70;10.10;;;0.50;99.90;;;;;;5022568;28;20925;-67
2023/01/24 08:12:07;;;;;;;18.77;9.07;;;0.60;99.90;;;;;;5018746;28;20414;-68
2023/01/24 08:14:33;;;;;;;20.03;8.20;;;0.60;99.90;;;;;;5026178;28;20211;-66
2023/01/24 08:16:58;;;;;;;17.60;9.70;;;0.60;99.90;;;;;;5026321;28;21906;-70
2023/01/24 08:19:24;;;;;;;34.20;11.37;;;0.60;99.90;;;;;;5027673;28;20176;-68
2023/01/24 08:21:50;;;;;;;16.23;8.27;;;0.60;99.90;;;;;;5023890;28;20186;-68
2023/01/24 08:24:15;;;;;;;18.17;9.40;;;0.60;99.90;;;;;;5026994;28;20176;-68
2023/01/24 08:26:41;;;;;;;20.13;10.93;;;0.50;99.90;;;;;;5024940;28;20851;-68
2023/01/24 08:29:07;;;;;;;24.23;14.63;;;0.50;99.90;;;;;;5026595;28;20178;-67
2023/01/24 08:31:33;;;;;;;24.33;9.20;;;0.60;99.90;;;;;;5026585;28;20221;-66
2023/01/24 08:33:58;;;;;;;24.87;11.60;;;0.60;99.90;;;;;;5023344;28;20415;-68
2023/01/24 08:36:24;;;;;;;22.10;11.27;;;0.60;99.90;;;;;;5026558;28;20183;-69
2023/01/24 08:38:49;;;;;;;18.27;9.80;;;0.60;99.90;;;;;;5023679;28;20195;-68
2023/01/24 08:41:15;;;;;;;22.63;9.80;;;0.70;99.90;;;;;;5027458;28;20546;-68
2023/01/24 08:43:42;;;;;;;27.30;11.53;;;0.70;99.90;;;;;;5025645;28;20193;-68
2023/01/24 08:46:07;;;;;;;23.27;11.03;;;0.80;99.90;;;;;;5019143;28;20214;-65
2023/01/24 08:48:33;;;;;;;32.80;11.87;;;0.80;99.90;;;;;;5025901;28;20435;-67
2023/01/24 08:51:01;;;;;;;26.50;11.37;;;0.70;99.90;;;;;;5010619;28;20176;-67
2023/01/24 08:53:28;;;;;;;25.10;11.43;;;0.80;99.90;;;;;;5016147;28;20260;-66
2023/01/24 08:55:54;;;;;;;37.07;12.10;;;0.80;99.90;;;;;;5021694;28;20515;-66
2023/01/24 08:58:20;;;;;;;39.07;15.47;;;0.80;99.90;;;;;;5027486;28;20525;-66
2023/01/24 09:00:46;;;;;;;29.73;12.83;;;0.90;99.90;;;;;;5023399;28;20175;-66
2023/01/24 09:03:17;;;;;;;38.00;17.67;;;0.90;99.90;;;;;;5027346;28;20410;-66
2023/01/24 09:05:43;;;;;;;37.17;16.10;;;0.90;99.90;;;;;;5024148;28;20528;-65
2023/01/24 09:08:09;;;;;;;46.10;14.70;;;0.80;99.90;;;;;;5037328;28;20439;-66
2023/01/24 09:10:35;;;;;;;44.70;16.63;;;0.90;99.90;;;;;;5023090;28;20176;-67
2023/01/24 09:13:02;;;;;;;35.73;14.30;;;0.90;99.90;;;;;;5025580;28;20404;-68
2023/01/24 09:15:28;;;;;;;34.10;15.00;;;0.90;99.90;;;;;;5028602;28;20498;-67
2023/01/24 09:17:55;;;;;;;45.43;16.40;;;0.90;99.90;;;;;;5022397;28;20427;-66
2023/01/24 09:20:20;;;;;;;35.43;14.43;;;1.00;99.90;;;;;;5021696;28;20412;-68
2023/01/24 09:22:46;;;;;;;32.80;15.70;;;1.00;99.90;;;;;;5029697;28;20407;-67
2023/01/24 09:25:12;;;;;;;37.60;14.50;;;1.00;99.90;;;;;;5021718;28;20168;-68
2023/01/24 09:27:41;;;;;;;36.00;15.33;;;1.00;99.90;;;;;;5027657;28;20264;-68
2023/01/24 09:30:08;;;;;;;57.03;17.10;;;1.00;99.90;;;;;;5021813;28;20490;-66
2023/01/24 09:32:35;;;;;;;33.93;14.67;;;1.10;99.90;;;;;;5022331;28;20419;-68
2023/01/24 09:35:01;;;;;;;39.30;17.50;;;1.10;99.90;;;;;;5027142;28;20415;-67
2023/01/24 09:37:26;;;;;;;34.23;15.53;;;1.20;99.90;;;;;;5021667;28;20518;-64
2023/01/24 09:39:55;;;;;;;46.73;17.77;;;1.20;99.90;;;;;;5028490;28;20549;-66
2023/01/24 09:42:39;;;;;;;39.20;15.80;;;1.20;99.90;;;;;;5021337;28;20262;-67
2023/01/24 09:45:21;;;;;;;37.20;16.77;;;1.30;99.90;;;;;;5014846;28;20915;-66
2023/01/24 09:48:00;;;;;;;31.40;14.50;;;1.30;99.90;;;;;;5021656;28;20431;-66
2023/01/24 09:50:40;;;;;;;37.97;16.30;;;1.30;99.90;;;;;;5023168;28;20394;-66
2023/01/24 09:53:15;;;;;;;39.37;17.30;;;1.40;99.90;;;;;;5021214;28;20953;-67
2023/01/24 09:55:42;;;;;;;32.80;15.70;;;1.50;99.90;;;;;;5022991;28;20470;-66
2023/01/24 09:58:26;;;;;;;39.17;13.90;;;1.40;99.90;;;;;;5017191;28;20568;-66
2023/01/24 10:00:52;;;;;;;31.73;14.53;;;1.50;99.90;;;;;;5023614;28;20404;-66
2023/01/24 10:03:21;;;;;;;49.90;17.57;;;1.70;99.90;;;;;;5021323;28;20965;-66
2023/01/24 10:05:51;;;;;;;42.07;16.43;;;1.80;99.90;;;;;;5022126;28;20202;-66
2023/01/24 10:08:43;;;;;;;34.87;16.97;;;1.80;99.90;;;;;;5024739;28;20426;-68
2023/01/24 10:11:27;;;;;;;56.40;19.40;;;1.70;99.90;;;;;;5018854;28;20404;-66
2023/01/24 10:14:10;;;;;;;43.53;15.93;;;1.80;99.90;;;;;;5027623;28;20399;-67
2023/01/24 10:16:45;;;;;;;51.50;15.47;;;2.00;99.90;;;;;;5017051;28;20435;-67
2023/01/24 10:19:24;;;;;;;31.73;17.20;;;2.10;99.90;;;;;;5026917;28;20484;-67
2023/01/24 10:22:14;;;;;;;40.90;16.60;;;1.90;99.90;;;;;;5022404;28;20422;-67
2023/01/24 10:24:47;;;;;;;40.33;15.67;;;2.00;99.90;;;;;;5023302;28;20414;-68
2023/01/24 10:27:27;;;;;;;47.63;17.20;;;2.10;99.90;;;;;;5019164;28;20466;-67
2023/01/24 10:29:59;;;;;;;43.93;15.90;;;2.20;99.90;;;;;;5021020;28;20411;-68
2023/01/24 10:32:34;;;;;;;38.53;14.67;;;2.20;99.90;;;;;;5018674;28;20415;-66
2023/01/24 10:35:23;;;;;;;38.50;18.90;;;2.40;99.90;;;;;;5019450;28;20485;-66
2023/01/24 10:37:55;;;;;;;37.93;16.70;;;2.40;99.90;;;;;;5023418;28;20427;-65
2023/01/24 10:40:24;;;;;;;37.40;15.43;;;2.40;99.90;;;;;;5024600;28;20739;-66
2023/01/24 10:42:50;;;;;;;37.73;15.43;;;2.40;99.90;;;;;;5023050;28;20415;-66
2023/01/24 10:45:30;;;;;;;49.47;15.30;;;2.40;99.90;;;;;;5025651;28;20503;-66
2023/01/24 10:48:09;;;;;;;32.93;13.27;;;2.30;99.90;;;;;;5023670;28;20665;-66
2023/01/24 10:50:42;;;;;;;36.70;13.60;;;2.30;99.90;;;;;;5015152;28;20944;-66
2023/01/24 10:53:27;;;;;;;27.73;15.60;;;2.40;99.90;;;;;;5023512;28;20425;-66
2023/01/24 10:56:03;;;;;;;27.93;14.43;;;2.40;99.90;;;;;;5021891;28;20905;-66
2023/01/24 10:58:42;;;;;;;36.60;15.20;;;2.20;99.90;;;;;;5023266;28;20472;-66
2023/01/24 11:01:19;;;;;;;37.87;16.10;;;2.20;99.90;;;;;;5023682;28;20440;-65
2023/01/24 11:03:50;;;;;;;29.03;16.10;;;2.20;99.90;;;;;;5021710;28;20417;-67
2023/01/24 11:06:27;;;;;;;32.00;14.80;;;2.20;99.90;;;;;;5011955;28;20470;-66
2023/01/24 11:08:55;;;;;;;37.67;15.50;;;2.10;99.90;;;;;;5017984;28;21254;-66
2023/01/24 11:11:29;;;;;;;33.43;13.80;;;2.10;99.90;;;;;;5020367;28;20410;-66
2023/01/24 11:13:58;;;;;;;29.17;13.47;;;2.10;99.90;;;;;;5023307;28;20430;-67
2023/01/24 11:16:33;;;;;;;33.03;16.53;;;2.10;99.90;;;;;;5010084;28;20918;-66
2023/01/24 11:19:02;;;;;;;27.47;13.10;;;2.10;99.90;;;;;;5011059;28;20527;-66
2023/01/24 11:21:31;;;;;;;33.47;15.70;;;2.10;99.90;;;;;;5022399;28;20456;-65
2023/01/24 11:24:14;;;;;;;28.33;15.10;;;2.30;99.90;;;;;;5023001;28;20445;-66
2023/01/24 11:26:54;;;;;;;37.03;14.03;;;2.20;99.90;;;;;;5021447;28;20445;-66
2023/01/24 11:29:20;;;;;;;32.17;13.40;;;2.20;99.90;;;;;;5023194;28;20406;-66
2023/01/24 11:31:56;;;;;;;33.43;12.53;;;2.20;99.90;;;;;;5012885;28;20507;-66
2023/01/24 11:34:31;;;;;;;31.07;14.60;;;2.30;99.90;;;;;;5024138;28;20410;-66
2023/01/24 11:37:24;;;;;;;33.47;15.10;;;2.10;99.90;;;;;;5019466;28;20410;-66
2023/01/24 11:40:28;;;;;;;27.63;13.20;;;2.10;99.90;;;;;;5026110;28;20414;-66
2023/01/24 11:43:14;;;;;;;28.43;14.50;;;2.10;99.90;;;;;;5024933;28;20418;-65
2023/01/24 11:46:10;;;;;;;31.10;13.70;;;2.20;99.90;;;;;;5027957;28;20455;-67
2023/01/24 11:49:09;;;;;;;25.87;11.80;;;2.20;99.90;;;;;;5025082;28;20963;-66
2023/01/24 11:51:54;;;;;;;30.20;13.60;;;2.30;99.90;;;;;;5026259;28;20438;-65
2023/01/24 11:54:45;;;;;;;31.00;14.80;;;2.40;99.90;;;;;;5018262;28;20439;-66
2023/01/24 11:57:23;;;;;;;22.33;12.50;;;2.40;99.90;;;;;;5004026;28;20469;-66
2023/01/24 11:59:58;;;;;;;29.43;13.10;;;2.40;99.90;;;;;;5017437;28;20427;-66
2023/01/24 12:02:33;;;;;;;25.43;11.37;;;2.30;99.90;;;;;;5034518;28;20438;-68
2023/01/24 12:04:59;;;;;;;30.40;14.27;;;2.40;99.90;;;;;;5012066;28;20410;-67
2023/01/24 12:08:03;;;;;;;27.40;13.03;;;2.40;99.90;;;;;;5025289;28;20507;-65
2023/01/24 12:11:04;;;;;;;33.20;15.30;;;2.60;99.90;;;;;;4993211;28;20439;-67
2023/01/24 12:13:36;;;;;;;29.20;12.90;;;2.50;99.90;;;;;;4999238;28;20432;-66
2023/01/24 12:16:01;;;;;;;28.63;12.97;;;2.60;99.90;;;;;;5014040;28;20408;-66
2023/01/24 12:18:52;;;;;;;22.57;12.40;;;2.50;99.90;;;;;;5025162;28;20534;-66
2023/01/24 12:21:18;;;;;;;24.67;13.40;;;2.60;99.90;;;;;;5015068;28;20180;-66
2023/01/24 12:24:19;;;;;;;28.40;12.67;;;2.60;99.90;;;;;;5009625;28;20437;-66
2023/01/24 12:26:57;;;;;;;28.60;14.17;;;2.50;99.90;;;;;;4942430;28;20449;-66
2023/01/24 12:29:26;;;;;;;28.10;14.73;;;2.50;99.90;;;;;;5014362;28;20422;-65
2023/01/24 12:32:07;;;;;;;25.23;11.80;;;2.50;99.90;;;;;;5024658;28;20466;-66
2023/01/24 12:34:45;;;;;;;31.80;14.83;;;2.50;99.90;;;;;;5028477;28;20417;-67
2023/01/24 12:37:27;;;;;;;33.20;15.80;;;2.40;99.90;;;;;;5015219;28;20431;-66
2023/01/24 12:40:35;;;;;;;28.43;12.93;;;2.40;99.90;;;;;;5028919;28;20416;-66
2023/01/24 12:43:06;;;;;;;26.23;14.27;;;2.40;99.90;;;;;;5008350;28;20410;-66
2023/01/24 12:45:52;;;;;;;20.53;13.27;;;2.40;99.90;;;;;;5010322;28;20476;-66
2023/01/24 12:48:40;;;;;;;34.60;14.10;;;2.50;99.90;;;;;;5019557;28;20822;-66
2023/01/24 12:51:27;;;;;;;23.57;11.60;;;2.40;99.90;;;;;;5024587;28;21053;-66
2023/01/24 12:54:15;;;;;;;30.10;12.53;;;2.50;99.90;;;;;;5023908;28;20407;-66
2023/01/24 12:56:58;;;;;;;29.53;13.57;;;2.50;99.90;;;;;;5022482;28;20426;-66
2023/01/24 12:59:30;;;;;;;28.57;12.53;;;2.50;99.90;;;;;;5013675;28;20511;-65
2023/01/24 13:02:33;;;;;;;27.30;13.37;;;2.60;99.90;;;;;;5014686;28;20439;-65
2023/01/24 13:05:20;;;;;;;28.57;13.43;;;2.50;99.90;;;;;;5013880;28;20497;-65
2023/01/24 13:08:07;;;;;;;31.33;13.67;;;2.60;99.90;;;;;;5013892;28;20469;-65
2023/01/24 13:10:54;;;;;;;31.80;13.80;;;2.50;99.90;;;;;;5021871;28;20410;-66
2023/01/24 13:13:28;;;;;;;25.80;11.33;;;2.40;99.90;;;;;;5002016;28;20839;-66
2023/01/24 13:16:09;;;;;;;32.17;12.70;;;2.40;99.90;;;;;;5026252;28;20411;-66
2023/01/24 13:18:44;;;;;;;40.67;12.60;;;2.30;99.90;;;;;;5012322;28;20442;-65
2023/01/24 13:21:34;;;;;;;29.83;15.90;;;2.30;99.90;;;;;;5025303;28;20414;-66
2023/01/24 13:24:19;;;;;;;28.93;13.93;;;2.30;99.90;;;;;;5010045;28;20422;-65
2023/01/24 13:26:45;;;;;;;42.53;14.60;;;2.30;99.90;;;;;;4999457;28;20459;-66
2023/01/24 13:29:19;;;;;;;22.27;10.30;;;2.30;99.90;;;;;;5013314;28;20412;-67
2023/01/24 13:32:08;;;;;;;35.50;13.70;;;2.30;99.90;;;;;;5013463;28;20579;-66
2023/01/24 13:34:42;;;;;;;25.47;13.50;;;2.30;99.90;;;;;;5021797;28;20399;-66
2023/01/24 13:37:21;;;;;;;22.20;13.00;;;2.40;99.90;;;;;;5022460;28;20585;-66
2023/01/24 13:39:47;;;;;;;26.10;12.73;;;2.30;99.90;;;;;;5013915;28;20414;-66